createdAt,value
2022-08-08T00:00:56.389Z,102603.41
2022-08-08T00:03:31.483Z,102603.41
2022-08-08T00:06:34.304Z,102586.69
2022-08-08T00:09:40.298Z,102597.25
2022-08-08T00:12:17.571Z,102592.06
2022-08-08T00:15:24.217Z,102600.66
2022-08-08T00:18:25.140Z,102595.44
2022-08-08T00:21:01.876Z,102601.50
2022-08-08T00:23:57.885Z,102595.28
2022-08-08T00:26:44.478Z,102597.03
2022-08-08T00:29:45.377Z,102596.16
2022-08-08T00:32:35.206Z,102586.41
2022-08-08T00:35:34.578Z,102591.72
2022-08-08T00:38:52.193Z,102589.97
2022-08-08T00:41:55.541Z,102596.19
2022-08-08T00:44:44.256Z,102593.59
2022-08-08T00:48:02.051Z,102586.59
2022-08-08T00:50:35.922Z,102589.31
2022-08-08T00:53:43.726Z,102579.78
2022-08-08T00:57:06.431Z,102592.94
2022-08-08T01:00:01.862Z,102587.72
2022-08-08T01:04:02.216Z,102586.00
2022-08-08T01:06:40.342Z,102587.81
2022-08-08T01:09:41.247Z,102583.41
2022-08-08T01:12:36.170Z,102590.56
2022-08-08T01:15:36.875Z,102581.75
2022-08-08T01:18:25.305Z,102589.75
2022-08-08T01:22:03.861Z,102596.84
2022-08-08T01:24:57.110Z,102586.28
2022-08-08T01:28:00.019Z,102584.56
2022-08-08T01:32:05.465Z,102586.38
2022-08-08T01:35:02.085Z,102589.97
2022-08-08T01:38:09.162Z,102578.53
2022-08-08T01:41:21.722Z,102586.56
2022-08-08T01:44:03.160Z,102577.81
2022-08-08T01:46:56.193Z,102580.47
2022-08-08T01:50:12.388Z,102580.47
2022-08-08T01:55:17.772Z,102570.94
2022-08-08T01:56:28.799Z,102583.25
2022-08-08T01:59:49.302Z,102585.06
2022-08-08T02:03:54.597Z,102583.41
2022-08-08T02:06:43.508Z,102589.66
2022-08-08T02:10:01.373Z,102585.25
2022-08-08T02:12:43.965Z,102594.16
2022-08-08T02:15:40.987Z,102585.44
2022-08-08T02:18:33.043Z,102593.34
2022-08-08T02:21:36.255Z,102591.59
2022-08-08T02:24:26.308Z,102601.38
2022-08-08T02:27:13.141Z,102598.72
2022-08-08T02:30:06.936Z,102600.53
2022-08-08T02:33:19.017Z,102611.22
2022-08-08T02:36:08.141Z,102608.59
2022-08-08T02:39:41.820Z,102616.59
2022-08-08T02:44:35.858Z,102613.13
2022-08-08T02:46:10.872Z,102614.94
2022-08-08T02:49:47.524Z,102606.13
2022-08-08T02:52:40.124Z,102602.66
2022-08-08T02:55:44.172Z,102605.34
2022-08-08T02:58:35.356Z,102607.19
2022-08-08T03:01:50.053Z,102604.56
2022-08-08T03:05:12.694Z,102601.94
2022-08-08T03:08:01.762Z,102607.28
2022-08-08T03:11:03.234Z,102609.06
2022-08-08T03:15:59.560Z,102608.16
2022-08-08T03:17:04.629Z,102610.81
2022-08-08T03:20:11.050Z,102610.84
2022-08-08T03:23:04.902Z,102622.38
2022-08-08T03:25:35.562Z,102616.22
2022-08-08T03:28:18.839Z,102617.13
2022-08-08T03:30:48.899Z,102619.81
2022-08-08T03:33:55.108Z,102619.78
2022-08-08T03:36:10.228Z,102620.69
2022-08-08T03:38:57.516Z,102623.34
2022-08-08T03:42:28.529Z,102628.66
2022-08-08T03:44:25.580Z,102617.25
2022-08-08T03:46:54.012Z,102622.47
2022-08-08T03:49:56.489Z,102620.75
2022-08-08T03:52:14.224Z,102613.75
2022-08-08T03:55:01.869Z,102626.03
2022-08-08T03:58:35.722Z,102620.75
2022-08-08T04:00:26.109Z,102624.34
2022-08-08T04:03:01.841Z,102626.09
2022-08-08T04:05:37.749Z,102617.31
2022-08-08T04:08:33.411Z,102631.41
2022-08-08T04:11:11.256Z,102636.72
2022-08-08T04:14:03.171Z,102629.66
2022-08-08T04:16:38.944Z,102637.50
2022-08-08T04:19:23.809Z,102620.81
2022-08-08T04:21:54.326Z,102633.91
2022-08-08T04:24:29.502Z,102636.53
2022-08-08T04:26:59.769Z,102629.50
2022-08-08T04:29:37.167Z,102636.47
2022-08-08T04:32:07.255Z,102630.38
2022-08-08T04:34:43.042Z,102622.47
2022-08-08T04:37:31.716Z,102634.75
2022-08-08T04:40:06.393Z,102638.06
2022-08-08T04:42:37.085Z,102633.44
2022-08-08T04:45:05.894Z,102633.16
2022-08-08T04:47:36.738Z,102635.44
2022-08-08T04:50:24.222Z,102621.97
2022-08-08T04:53:00.564Z,102632.22
2022-08-08T04:55:37.892Z,102643.16
2022-08-08T04:58:19.616Z,102641.56
2022-08-08T05:00:48.282Z,102643.47
2022-08-08T05:03:19.066Z,102638.16
2022-08-08T05:06:12.790Z,102638.28
2022-08-08T05:08:51.504Z,102643.09
2022-08-08T05:11:23.794Z,102635.91
2022-08-08T05:13:57.924Z,102636.31
2022-08-08T05:16:52.052Z,102637.56
2022-08-08T05:20:06.205Z,102637.09
2022-08-08T05:22:09.969Z,102650.66
2022-08-08T05:24:38.547Z,102648.34
2022-08-08T05:27:06.648Z,102629.38
2022-08-08T05:29:35.879Z,102653.22
2022-08-08T05:32:08.126Z,102632.50
2022-08-08T05:34:47.688Z,102631.81
2022-08-08T05:37:49.230Z,102646.84
2022-08-08T05:40:17.889Z,102645.28
2022-08-08T05:42:53.349Z,102655.94
2022-08-08T05:45:31.058Z,102643.78
2022-08-08T05:48:08.665Z,102654.47
2022-08-08T05:50:36.899Z,102631.78
2022-08-08T05:53:53.611Z,102616.69
2022-08-08T05:56:10.308Z,102661.75
2022-08-08T05:58:57.061Z,102664.84
2022-08-08T06:01:52.821Z,102666.91
2022-08-08T06:04:24.651Z,102672.47
2022-08-08T06:07:00.568Z,102665.28
2022-08-08T06:09:58.621Z,102681.72
2022-08-08T06:12:30.198Z,102668.28
2022-08-08T06:15:06.455Z,102679.50
2022-08-08T06:17:51.204Z,102666.03
2022-08-08T06:20:25.893Z,102677.34
2022-08-08T06:22:54.257Z,102677.06
2022-08-08T06:26:35.127Z,102667.19
2022-08-08T06:28:29.351Z,102666.63
2022-08-08T06:31:04.041Z,102668.66
2022-08-08T06:34:27.298Z,102681.13
2022-08-08T06:36:57.158Z,102677.16
2022-08-08T06:39:34.048Z,102674.03
2022-08-08T06:42:02.956Z,102679.78
2022-08-08T06:44:30.881Z,102675.84
2022-08-08T06:46:59.682Z,102672.72
2022-08-08T06:49:54.787Z,102684.53
2022-08-08T06:52:17.297Z,102683.81
2022-08-08T06:54:48.886Z,102691.97
2022-08-08T06:57:16.429Z,102682.31
2022-08-08T07:00:10.278Z,102683.25
2022-08-08T07:02:34.532Z,102692.91
2022-08-08T07:05:11.882Z,102680.50
2022-08-08T07:07:55.395Z,102683.63
2022-08-08T07:10:25.834Z,102680.13
2022-08-08T07:13:04.664Z,102669.91
2022-08-08T07:16:10.254Z,102681.66
2022-08-08T07:18:46.078Z,102678.38
2022-08-08T07:21:22.610Z,102674.34
2022-08-08T07:24:19.215Z,102674.56
2022-08-08T07:26:54.521Z,102664.94
2022-08-08T07:30:02.316Z,102681.91
2022-08-08T07:32:15.817Z,102676.63
2022-08-08T07:35:01.046Z,102675.91
2022-08-08T07:37:56.147Z,102669.06
2022-08-08T07:40:28.697Z,102681.41
2022-08-08T07:42:57.608Z,102679.69
2022-08-08T07:45:34.965Z,102676.22
2022-08-08T07:48:13.817Z,102678.16
2022-08-08T07:50:43.228Z,102683.94
2022-08-08T07:54:24.017Z,102695.03
2022-08-08T07:57:03.245Z,102690.06
2022-08-08T07:59:38.602Z,102684.94
2022-08-08T08:02:34.281Z,102695.31
2022-08-08T08:05:26.407Z,102700.53
2022-08-08T08:08:10.514Z,102705.78
2022-08-08T08:10:38.474Z,102699.44
2022-08-08T08:13:42.813Z,102708.34
2022-08-08T08:16:26.796Z,102710.06
2022-08-08T08:19:04.944Z,102691.66
2022-08-08T08:21:56.893Z,102706.78
2022-08-08T08:24:30.783Z,102708.69
2022-08-08T08:27:03.452Z,102707.81
2022-08-08T08:29:31.562Z,102704.09
2022-08-08T08:32:05.332Z,102700.75
2022-08-08T08:34:33.920Z,102699.91
2022-08-08T08:37:07.586Z,102702.38
2022-08-08T08:40:01.320Z,102707.63
2022-08-08T08:42:31.777Z,102708.09
2022-08-08T08:45:10.259Z,102699.44
2022-08-08T08:47:53.981Z,102709.28
2022-08-08T08:50:32.084Z,102709.22
2022-08-08T08:53:27.393Z,102708.34
2022-08-08T08:56:01.953Z,102717.34
2022-08-08T08:58:46.709Z,102715.75
2022-08-08T09:01:26.937Z,102717.84
2022-08-08T09:04:01.550Z,102708.09
2022-08-08T09:06:40.487Z,102706.00
2022-08-08T09:09:39.958Z,102712.63
2022-08-08T09:12:15.440Z,102724.50
2022-08-08T09:14:44.859Z,102709.00
2022-08-08T09:17:19.144Z,102712.41
2022-08-08T09:22:02.948Z,102714.09
2022-08-08T09:22:58.189Z,102708.63
2022-08-08T09:25:35.982Z,102712.28
2022-08-08T09:28:23.975Z,102704.84
2022-08-08T09:31:24.149Z,102716.19
2022-08-08T09:34:15.443Z,102713.09
2022-08-08T09:36:51.838Z,102712.25
2022-08-08T09:39:58.767Z,102717.16
2022-08-08T09:42:43.875Z,102713.69
2022-08-08T09:46:02.110Z,102703.91
2022-08-08T09:48:22.910Z,102718.28
2022-08-08T09:50:58.312Z,102729.59
2022-08-08T09:53:59.848Z,102717.22
2022-08-08T09:56:35.145Z,102710.97
2022-08-08T09:59:50.683Z,102704.25
2022-08-08T10:02:21.253Z,102703.66
2022-08-08T10:04:52.796Z,102710.19
2022-08-08T10:07:20.613Z,102704.44
2022-08-08T10:09:59.730Z,102707.09
2022-08-08T10:12:54.427Z,102723.91
2022-08-08T10:15:39.285Z,102713.78
2022-08-08T10:18:11.555Z,102717.41
2022-08-08T10:21:00.655Z,102724.63
2022-08-08T10:23:41.878Z,102723.09
2022-08-08T10:26:58.776Z,102721.72
2022-08-08T10:29:57.222Z,102667.88
2022-08-08T10:32:37.342Z,102714.00
2022-08-08T10:36:01.879Z,102713.13
2022-08-08T10:38:07.892Z,102723.91
2022-08-08T10:40:38.818Z,102720.47
2022-08-08T10:43:09.775Z,102718.91
2022-08-08T10:45:56.524Z,102713.75
2022-08-08T10:48:55.783Z,102709.66
2022-08-08T10:51:47.334Z,102717.97
2022-08-08T10:54:27.104Z,102720.97
2022-08-08T10:57:01.436Z,102722.22
2022-08-08T10:59:39.652Z,102722.31
2022-08-08T11:02:10.579Z,102738.25
2022-08-08T11:04:53.416Z,102727.56
2022-08-08T11:08:38.761Z,102722.88
2022-08-08T11:10:41.400Z,102724.28
2022-08-08T11:16:07.395Z,102716.66
2022-08-08T11:18:42.025Z,102714.78
2022-08-08T11:21:20.436Z,102704.88
2022-08-08T11:24:02.370Z,102712.38
2022-08-08T11:26:38.380Z,102729.56
2022-08-08T11:29:41.995Z,102728.94
2022-08-08T11:32:16.489Z,102721.84
2022-08-08T11:35:29.327Z,102722.47
2022-08-08T11:38:35.120Z,102716.38
2022-08-08T11:40:31.531Z,102724.38
2022-08-08T11:43:00.750Z,102717.91
2022-08-08T11:45:29.863Z,102719.66
2022-08-08T11:48:09.867Z,102727.38
2022-08-08T11:50:37.683Z,102722.13
2022-08-08T11:53:06.265Z,102723.47
2022-08-08T11:55:37.317Z,102721.03
2022-08-08T11:58:15.387Z,102717.44
2022-08-08T12:00:48.038Z,102728.81
2022-08-08T12:03:30.781Z,102724.44
2022-08-08T12:05:58.181Z,102705.56
2022-08-08T12:08:35.647Z,102710.69
2022-08-08T12:11:09.744Z,102728.53
2022-08-08T12:14:02.240Z,102712.31
2022-08-08T12:16:30.297Z,102722.94
2022-08-08T12:19:05.803Z,102734.59
2022-08-08T12:22:00.210Z,102725.84
2022-08-08T12:24:28.000Z,102721.38
2022-08-08T12:26:58.318Z,102734.41
2022-08-08T12:29:40.345Z,102735.03
2022-08-08T12:32:20.349Z,102720.97
2022-08-08T12:35:04.673Z,102729.22
2022-08-08T12:38:01.227Z,102729.09
2022-08-08T12:40:57.251Z,102726.53
2022-08-08T12:43:43.801Z,102713.22
2022-08-08T12:46:25.248Z,102715.53
2022-08-08T12:51:59.033Z,102718.94
2022-08-08T12:54:36.519Z,102718.94
2022-08-08T12:57:25.807Z,102718.63
2022-08-08T13:00:04.444Z,102713.91
2022-08-08T13:02:41.992Z,102720.97
2022-08-08T13:05:26.943Z,102707.63
2022-08-08T13:08:17.801Z,102721.19
2022-08-08T13:10:58.032Z,102718.09
2022-08-08T13:13:34.872Z,102709.63
2022-08-08T13:16:25.567Z,102722.88
2022-08-08T13:19:06.714Z,102723.19
2022-08-08T13:21:53.229Z,102712.00
2022-08-08T13:24:42.051Z,102733.63
2022-08-08T13:27:13.274Z,102729.97
2022-08-08T13:30:00.826Z,102713.69
2022-08-08T13:32:37.190Z,102721.75
2022-08-08T13:35:11.714Z,102700.47
2022-08-08T13:38:06.475Z,102716.63
2022-08-08T13:40:35.898Z,102736.84
2022-08-08T13:43:08.383Z,102728.81
2022-08-08T13:45:36.865Z,102721.72
2022-08-08T13:48:14.430Z,102738.28
2022-08-08T13:50:55.072Z,102711.72
2022-08-08T13:53:33.783Z,102716.97
2022-08-08T13:56:11.840Z,102701.50
2022-08-08T13:58:57.363Z,102714.41
2022-08-08T14:01:33.014Z,102708.34
2022-08-08T14:04:23.123Z,102723.34
2022-08-08T14:06:58.803Z,102715.69
2022-08-08T14:10:05.150Z,102716.78
2022-08-08T14:12:43.778Z,102700.09
2022-08-08T14:15:39.632Z,102735.91
2022-08-08T14:18:36.915Z,102718.34
2022-08-08T14:21:12.581Z,102724.78
2022-08-08T14:24:07.033Z,102712.59
2022-08-08T14:26:45.849Z,102712.59
2022-08-08T14:29:30.084Z,102694.19
2022-08-08T14:32:11.522Z,102728.81
2022-08-08T14:34:42.515Z,102718.25
2022-08-08T14:37:12.921Z,102728.69
2022-08-08T14:40:06.737Z,102719.81
2022-08-08T14:42:54.794Z,102720.72
2022-08-08T14:45:47.129Z,102729.72
2022-08-08T14:48:27.619Z,102725.50
2022-08-08T14:51:07.340Z,102728.00
2022-08-08T14:53:55.116Z,102724.38
2022-08-08T14:56:25.923Z,102729.78
2022-08-08T14:58:54.975Z,102711.78
2022-08-08T15:01:37.675Z,102727.66
2022-08-08T15:04:09.653Z,102733.00
2022-08-08T15:06:37.334Z,102718.47
2022-08-08T15:09:04.683Z,102721.00
2022-08-08T15:11:42.871Z,102714.94
2022-08-08T15:14:15.050Z,102721.84
2022-08-08T15:16:44.338Z,102732.06
2022-08-08T15:19:11.956Z,102732.06
2022-08-08T15:21:44.608Z,102712.53
2022-08-08T15:24:14.226Z,102720.41
2022-08-08T15:26:44.072Z,102731.78
2022-08-08T15:29:22.593Z,102736.88
2022-08-08T15:32:17.810Z,102733.34
2022-08-08T15:34:39.956Z,102737.59
2022-08-08T15:37:07.625Z,102729.38
2022-08-08T15:39:38.435Z,102726.72
2022-08-08T15:42:10.396Z,102726.72
2022-08-08T15:44:38.769Z,102725.72
2022-08-08T15:47:15.664Z,102720.56
2022-08-08T15:49:48.393Z,102712.56
2022-08-08T15:52:20.750Z,102716.00
2022-08-08T15:54:51.675Z,102715.97
2022-08-08T15:57:21.671Z,102725.66
2022-08-08T16:00:25.463Z,102730.44
2022-08-08T16:02:44.139Z,102719.09
2022-08-08T16:05:20.505Z,102713.00
2022-08-08T16:07:51.630Z,102729.69
2022-08-08T16:13:09.023Z,102726.94
2022-08-08T16:13:31.982Z,102729.63
2022-08-08T16:16:09.512Z,102725.97
2022-08-08T16:18:56.573Z,102721.50
2022-08-08T16:21:31.780Z,102738.56
2022-08-08T16:24:06.254Z,102738.69
2022-08-08T16:26:37.469Z,102737.81
2022-08-08T16:29:17.847Z,102738.56
2022-08-08T16:31:51.050Z,102733.22
2022-08-08T16:34:21.103Z,102729.69
2022-08-08T16:36:52.665Z,102728.13
2022-08-08T16:40:00.872Z,102734.50
2022-08-08T16:42:18.346Z,102722.31
2022-08-08T16:44:54.488Z,102726.00
2022-08-08T16:47:31.480Z,102721.84
2022-08-08T16:50:13.127Z,102729.03
2022-08-08T16:55:04.695Z,102737.34
2022-08-08T16:55:52.982Z,102730.94
2022-08-08T16:58:20.407Z,102738.25
2022-08-08T17:00:48.860Z,102736.25
2022-08-08T17:03:24.389Z,102736.13
2022-08-08T17:05:53.826Z,102736.84
2022-08-08T17:08:23.759Z,102736.06
2022-08-08T17:10:57.948Z,102734.50
2022-08-08T17:13:41.087Z,102723.25
2022-08-08T17:16:17.133Z,102743.69
2022-08-08T17:18:45.582Z,102742.16
2022-08-08T17:21:12.842Z,102744.09
2022-08-08T17:23:58.553Z,102739.91
2022-08-08T17:26:31.267Z,102751.25
2022-08-08T17:29:04.378Z,102747.00
2022-08-08T17:31:45.761Z,102751.50
2022-08-08T17:34:49.090Z,102740.00
2022-08-08T17:37:09.058Z,102747.69
2022-08-08T17:40:05.173Z,102745.16
2022-08-08T17:42:24.273Z,102757.34
2022-08-08T17:44:52.599Z,102756.53
2022-08-08T17:47:23.868Z,102760.06
2022-08-08T17:50:01.352Z,102760.25
2022-08-08T17:52:35.416Z,102761.22
2022-08-08T17:55:05.473Z,102756.03
2022-08-08T17:57:38.532Z,102760.44
2022-08-08T18:00:19.052Z,102744.78
2022-08-08T18:02:58.152Z,102760.38
2022-08-08T18:05:48.012Z,102757.94
2022-08-08T18:08:36.974Z,102761.47
2022-08-08T18:11:06.375Z,102764.34
2022-08-08T18:13:35.079Z,102760.97
2022-08-08T18:16:09.778Z,102702.78
2022-08-08T18:18:42.505Z,102754.97
2022-08-08T18:21:35.300Z,102759.38
2022-08-08T18:24:03.025Z,102763.06
2022-08-08T18:26:30.281Z,102767.59
2022-08-08T18:28:58.131Z,102771.25
2022-08-08T18:31:27.697Z,102762.53
2022-08-08T18:34:12.180Z,102774.97
2022-08-08T18:36:44.512Z,102767.13
2022-08-08T18:39:16.435Z,102772.47
2022-08-08T18:42:01.066Z,102775.25
2022-08-08T18:44:33.106Z,102783.34
2022-08-08T18:47:02.275Z,102780.00
2022-08-08T18:49:32.567Z,102789.78
2022-08-08T18:52:22.560Z,102793.44
2022-08-08T18:54:59.669Z,102788.19
2022-08-08T18:57:37.029Z,102797.19
2022-08-08T19:00:15.991Z,102792.06
2022-08-08T19:02:55.342Z,102803.72
2022-08-08T19:05:30.645Z,102805.47
2022-08-08T19:08:28.349Z,102809.16
2022-08-08T19:11:01.701Z,102816.47
2022-08-08T19:13:52.434Z,102812.19
2022-08-08T19:16:20.296Z,102807.97
2022-08-08T19:18:55.972Z,102822.13
2022-08-08T19:21:31.020Z,102815.97
2022-08-08T19:24:05.276Z,102823.13
2022-08-08T19:26:37.651Z,102816.22
2022-08-08T19:29:06.439Z,102824.22
2022-08-08T19:31:35.407Z,102833.06
2022-08-08T19:34:36.379Z,102833.97
2022-08-08T19:36:58.579Z,102828.41
2022-08-08T19:39:35.163Z,102828.38
2022-08-08T19:42:05.113Z,102825.78
2022-08-08T19:44:45.876Z,102844.59
2022-08-08T19:47:14.702Z,102842.91
2022-08-08T19:49:43.473Z,102814.34
2022-08-08T19:52:34.796Z,102838.88
2022-08-08T19:55:14.595Z,102844.16
2022-08-08T19:57:45.795Z,102839.84
2022-08-08T20:00:28.946Z,102840.72
2022-08-08T20:02:58.846Z,102844.31
2022-08-08T20:06:15.481Z,102846.09
2022-08-08T20:08:38.844Z,102849.78
2022-08-08T20:11:01.381Z,102845.47
2022-08-08T20:14:32.573Z,102836.84
2022-08-08T20:16:17.962Z,102851.97
2022-08-08T20:18:53.159Z,102843.25
2022-08-08T20:21:26.224Z,102851.25
2022-08-08T20:23:57.753Z,102845.09
2022-08-08T20:26:29.847Z,102855.00
2022-08-08T20:29:02.930Z,102857.59
2022-08-08T20:32:02.547Z,102858.53
2022-08-08T20:34:29.437Z,102863.03
2022-08-08T20:37:04.360Z,102860.44
2022-08-08T20:39:41.809Z,102835.09
2022-08-08T20:42:23.731Z,102858.78
2022-08-08T20:44:58.456Z,102866.81
2022-08-08T20:47:26.414Z,102859.81
2022-08-08T20:49:57.873Z,102864.16
2022-08-08T20:52:28.130Z,102866.81
2022-08-08T20:54:57.384Z,102871.28
2022-08-08T20:57:26.954Z,102865.97
2022-08-08T20:59:56.213Z,102858.09
2022-08-08T21:02:25.668Z,102852.78
2022-08-08T21:05:01.279Z,102862.47
2022-08-08T21:07:47.134Z,102696.25
2022-08-08T21:10:20.705Z,102860.00
2022-08-08T21:12:53.034Z,102863.59
2022-08-08T21:16:04.009Z,102865.44
2022-08-08T21:18:11.861Z,102867.28
2022-08-08T21:20:41.972Z,102865.53
2022-08-08T21:23:18.043Z,102868.28
2022-08-08T21:25:49.039Z,102867.47
2022-08-08T21:28:33.351Z,102869.28
2022-08-08T21:31:23.092Z,102874.66
2022-08-08T21:33:52.367Z,102869.41
2022-08-08T21:36:28.897Z,102860.63
2022-08-08T21:38:57.473Z,102870.38
2022-08-08T21:41:38.096Z,102871.31
2022-08-08T21:44:11.232Z,102861.63
2022-08-08T21:48:02.028Z,102867.88
2022-08-08T21:49:28.441Z,102863.47
2022-08-08T21:54:35.833Z,102867.94
2022-08-08T21:54:54.269Z,102871.53
2022-08-08T21:57:42.526Z,102871.59
2022-08-08T22:00:14.647Z,102847.13
2022-08-08T22:02:46.550Z,102878.78
2022-08-08T22:05:15.325Z,102870.81
2022-08-08T22:07:47.371Z,102881.50
2022-08-08T22:10:18.510Z,102877.09
2022-08-08T22:13:17.333Z,102871.97
2022-08-08T22:15:58.856Z,102880.03
2022-08-08T22:18:33.354Z,102882.69
2022-08-08T22:21:11.206Z,102891.59
2022-08-08T22:23:52.224Z,102881.91
2022-08-08T22:26:30.685Z,102886.38
2022-08-08T22:29:14.788Z,102878.47
2022-08-08T22:31:58.382Z,102888.28
2022-08-08T22:34:39.191Z,102875.97
2022-08-08T22:37:27.817Z,102878.59
2022-08-08T22:40:01.136Z,102877.81
2022-08-08T22:42:34.267Z,102884.94
2022-08-08T22:45:12.484Z,102871.94
2022-08-08T22:47:46.952Z,102892.09
2022-08-08T22:50:27.467Z,102891.28
2022-08-08T22:54:30.675Z,102899.25
2022-08-08T22:55:59.388Z,102886.97
2022-08-08T22:58:34.208Z,102894.03
2022-08-08T23:02:01.607Z,102895.81
2022-08-08T23:03:56.712Z,102890.63
2022-08-08T23:06:25.805Z,102895.84
2022-08-08T23:08:58.847Z,102890.63
2022-08-08T23:12:18.121Z,102888.91
2022-08-08T23:14:21.114Z,102897.75
2022-08-08T23:16:56.090Z,102907.56
2022-08-08T23:19:30.728Z,102899.59
2022-08-08T23:22:04.348Z,102897.00
2022-08-08T23:24:41.677Z,102900.50
2022-08-08T23:27:17.228Z,102909.34
2022-08-08T23:29:59.312Z,102903.22
2022-08-08T23:32:26.607Z,102907.63
2022-08-08T23:34:58.850Z,102907.66
2022-08-08T23:38:01.191Z,102908.59
2022-08-08T23:40:14.919Z,102912.22
2022-08-08T23:42:43.106Z,102906.97
2022-08-08T23:45:12.607Z,102912.28
2022-08-08T23:48:59.923Z,102904.38
2022-08-08T23:50:30.185Z,102904.38
2022-08-08T23:52:59.123Z,102908.88
2022-08-08T23:55:31.968Z,102901.84
2022-08-08T23:58:01.734Z,102906.28
